Time;durP1;ratioP1;P1;durP2;ratioP2;P2;SDS_P1;SDS_P2;PMS_P1;PMS_P2;Temp;Humidity;BMP_temperature;BMP_pressure;BME280_temperature;BME280_humidity;BME280_pressure;Samples;Min_cycle;Max_cycle;Signal;HPM_P1;HPM_P2
2023/10/19 00:02:06;;;;;;;2.30;2.03;;;;;;;11.58;100.00;99625.84;5111021;28;20215;-63
2023/10/19 00:04:34;;;;;;;3.50;2.57;;;;;;;11.50;100.00;99613.22;5111593;28;20687;-64
2023/10/19 00:07:01;;;;;;;2.50;2.27;;;;;;;11.56;100.00;99628.47;5111345;28;20194;-64
2023/10/19 00:09:35;;;;;;;2.23;2.13;;;;;;;11.54;100.00;99627.66;5111285;28;20207;-64
2023/10/19 00:12:02;;;;;;;3.07;2.87;;;;;;;11.52;100.00;99621.75;5111378;28;20267;-64
2023/10/19 00:14:32;;;;;;;2.77;2.67;;;;;;;11.42;100.00;99610.06;5093744;28;20203;-64
2023/10/19 00:17:00;;;;;;;5.20;2.60;;;;;;;11.50;100.00;99618.38;5090048;28;20241;-64
2023/10/19 00:19:27;;;;;;;2.37;2.27;;;;;;;11.48;100.00;99612.44;5091296;28;20203;-64
2023/10/19 00:22:01;;;;;;;2.53;2.43;;;;;;;11.46;100.00;99600.56;5091027;28;20200;-64
2023/10/19 00:24:31;;;;;;;2.37;2.27;;;;;;;11.46;100.00;99603.97;5095340;27;20202;-63
2023/10/19 00:27:05;;;;;;;3.40;3.20;;;;;;;11.43;100.00;99601.50;5090916;28;20215;-64
2023/10/19 00:29:33;;;;;;;3.40;2.87;;;;;;;11.44;100.00;99592.88;5095701;28;20205;-64
2023/10/19 00:32:00;;;;;;;2.97;2.47;;;;;;;11.33;100.00;99577.00;5111128;28;20195;-64
2023/10/19 00:34:29;;;;;;;2.40;2.30;;;;;;;11.28;100.00;99566.00;5110844;28;20198;-64
2023/10/19 00:36:56;;;;;;;2.13;2.03;;;;;;;11.34;100.00;99586.34;5095052;28;20305;-63
2023/10/19 00:39:24;;;;;;;2.17;1.73;;;;;;;11.30;100.00;99584.78;5090627;28;20752;-64
2023/10/19 00:41:53;;;;;;;3.47;2.43;;;;;;;11.26;100.00;99588.31;5090407;28;20597;-64
2023/10/19 00:44:30;;;;;;;2.40;2.30;;;;;;;11.24;100.00;99584.13;5105033;28;20195;-64
2023/10/19 00:47:03;;;;;;;2.43;2.33;;;;;;;11.22;100.00;99585.88;5091423;28;20195;-64
2023/10/19 00:49:31;;;;;;;2.30;2.20;;;;;;;11.20;100.00;99577.41;5111102;28;20194;-64
2023/10/19 00:52:03;;;;;;;3.07;2.87;;;;;;;11.16;100.00;99581.78;5109768;28;20574;-63
2023/10/19 00:54:35;;;;;;;3.03;2.83;;;;;;;11.15;100.00;99579.28;5106254;28;20195;-64
2023/10/19 00:57:06;;;;;;;2.87;2.67;;;;;;;11.13;100.00;99581.88;5102345;28;20264;-64
2023/10/19 00:59:38;;;;;;;2.27;1.97;;;;;;;11.08;100.00;99573.47;5110582;28;20191;-64
2023/10/19 01:02:17;;;;;;;1.87;1.77;;;;;;;11.02;100.00;99569.34;5109551;28;20225;-64
2023/10/19 01:04:46;;;;;;;3.87;2.60;;;;;;;10.97;100.00;99572.94;5092609;28;20670;-64
2023/10/19 01:07:15;;;;;;;2.93;2.53;;;;;;;10.94;100.00;99566.19;5097175;28;20663;-64
2023/10/19 01:09:44;;;;;;;2.47;1.73;;;;;;;10.84;100.00;99543.41;5110749;28;20237;-63
2023/10/19 01:12:25;;;;;;;3.00;2.20;;;;;;;10.89;100.00;99551.78;5110611;28;20195;-63
2023/10/19 01:15:09;;;;;;;2.87;1.87;;;;;;;10.84;100.00;99554.50;5109862;28;20293;-64
2023/10/19 01:17:42;;;;;;;3.07;1.67;;;;;;;10.87;100.00;99553.56;5102065;28;20586;-64
2023/10/19 01:20:17;;;;;;;1.47;1.47;;;;;;;10.81;100.00;99549.47;5110531;28;20227;-63
2023/10/19 01:23:09;;;;;;;2.37;2.27;;;;;;;10.79;100.00;99547.84;5103830;28;20230;-64
2023/10/19 01:25:49;;;;;;;4.93;2.07;;;;;;;10.76;100.00;99548.75;5098617;28;20282;-64
2023/10/19 01:28:17;;;;;;;1.93;1.87;;;;;;;10.75;100.00;99548.81;5111750;28;20205;-64
2023/10/19 01:30:44;;;;;;;2.20;2.10;;;;;;;10.71;100.00;99548.03;5114301;27;20204;-64
2023/10/19 01:33:15;;;;;;;1.93;1.83;;;;;;;10.72;100.00;99551.44;5105871;28;20230;-63
2023/10/19 01:38:30;;;;;;;2.70;2.47;;;;;;;10.68;100.00;99532.75;5114475;28;20201;-64
2023/10/19 01:40:59;;;;;;;1.67;1.67;;;;;;;10.63;100.00;99546.59;5105585;27;20198;-64
2023/10/19 01:43:30;;;;;;;1.93;1.83;;;;;;;10.61;100.00;99545.78;5102219;27;20192;-64
2023/10/19 01:45:56;;;;;;;3.03;2.13;;;;;;;10.61;100.00;99550.91;5093762;28;20196;-63
2023/10/19 01:48:31;;;;;;;2.37;2.27;;;;;;;10.57;100.00;99555.25;5093474;28;20206;-64
2023/10/19 01:50:57;;;;;;;2.70;2.07;;;;;;;10.56;100.00;99552.75;5093914;28;20678;-63
2023/10/19 01:53:25;;;;;;;1.30;1.30;;;;;;;10.50;100.00;99551.22;5093565;28;20257;-64
2023/10/19 01:55:57;;;;;;;1.83;1.77;;;;;;;10.44;100.00;99557.34;5093626;28;20203;-64
2023/10/19 01:58:25;;;;;;;1.13;1.13;;;;;;;10.40;100.00;99553.16;5108811;27;20222;-63
2023/10/19 02:00:55;;;;;;;1.93;1.83;;;;;;;10.35;100.00;99560.16;5113622;28;20277;-64
2023/10/19 02:03:23;;;;;;;2.20;1.90;;;;;;;10.32;100.00;99555.09;5113966;28;20662;-64
2023/10/19 02:05:50;;;;;;;1.40;1.40;;;;;;;10.30;100.00;99556.88;5113919;28;20190;-64
2023/10/19 02:08:18;;;;;;;1.40;1.40;;;;;;;10.28;100.00;99557.78;5113670;28;20194;-63
2023/10/19 02:10:47;;;;;;;1.47;1.47;;;;;;;10.16;100.00;99553.81;5113921;28;20376;-63
2023/10/19 02:13:15;;;;;;;2.77;1.43;;;;;;;10.12;100.00;99554.75;5113559;28;20190;-63
2023/10/19 02:15:43;;;;;;;1.20;1.13;;;;;;;10.12;100.00;99551.34;5113432;28;20686;-64
2023/10/19 02:18:10;;;;;;;1.50;1.47;;;;;;;10.10;100.00;99543.72;5109385;27;20223;-64
2023/10/19 02:20:40;;;;;;;2.43;2.33;;;;;;;10.06;100.00;99547.22;5113481;28;20209;-63
2023/10/19 02:23:07;;;;;;;2.17;2.07;;;;;;;10.05;100.00;99554.97;5113467;27;20226;-63
2023/10/19 02:25:36;;;;;;;1.37;1.37;;;;;;;10.04;100.00;99559.25;5107703;28;20646;-63
2023/10/19 02:28:06;;;;;;;1.40;1.40;;;;;;;10.04;100.00;99564.38;5093069;28;20219;-63
2023/10/19 02:30:33;;;;;;;4.70;2.07;;;;;;;10.03;100.00;99563.50;5110710;28;20200;-63
2023/10/19 02:33:01;;;;;;;1.20;1.20;;;;;;;10.03;100.00;99562.66;5113172;28;20255;-64
2023/10/19 02:35:27;;;;;;;2.00;2.00;;;;;;;10.01;100.00;99567.00;5113290;28;20255;-64
2023/10/19 02:37:54;;;;;;;3.07;1.93;;;;;;;9.99;100.00;99571.31;5112488;27;20214;-63
2023/10/19 02:40:23;;;;;;;2.80;1.70;;;;;;;10.00;100.00;99573.84;5112069;28;20674;-63
2023/10/19 02:42:50;;;;;;;1.97;1.90;;;;;;;10.01;100.00;99582.38;5112967;28;20547;-64
2023/10/19 02:45:18;;;;;;;1.33;1.33;;;;;;;9.99;100.00;99586.66;5097104;27;20241;-64
2023/10/19 02:47:45;;;;;;;1.50;1.50;;;;;;;9.97;100.00;99578.19;5092845;28;20621;-64
2023/10/19 02:50:16;;;;;;;1.63;1.60;;;;;;;9.97;100.00;99578.19;5099144;28;20206;-64
2023/10/19 02:52:43;;;;;;;1.73;1.63;;;;;;;9.98;100.00;99574.75;5112966;27;20205;-63
2023/10/19 02:55:11;;;;;;;1.17;1.17;;;;;;;10.00;100.00;99578.13;5112613;28;20238;-64
2023/10/19 02:57:37;;;;;;;1.57;1.53;;;;;;;10.00;100.00;99578.13;5112781;28;20275;-64
2023/10/19 03:00:11;;;;;;;1.53;1.43;;;;;;;10.01;100.00;99574.69;5112782;28;20195;-63
2023/10/19 03:02:36;;;;;;;2.03;1.43;;;;;;;10.02;100.00;99571.22;5109035;28;20195;-63
2023/10/19 03:05:13;;;;;;;1.60;1.50;;;;;;;10.05;100.00;99570.34;5092160;28;20641;-64
2023/10/19 03:07:39;;;;;;;8.47;2.43;;;;;;;10.03;100.00;99572.91;5100575;28;20670;-63
2023/10/19 03:10:07;;;;;;;3.53;2.70;;;;;;;9.98;100.00;99574.75;5091943;28;20203;-64
2023/10/19 03:12:33;;;;;;;1.80;1.80;;;;;;;9.97;100.00;99583.31;5109734;28;20551;-63
2023/10/19 03:15:01;;;;;;;3.00;2.70;;;;;;;9.97;100.00;99576.47;5112667;28;20205;-63
2023/10/19 03:17:28;;;;;;;3.43;2.40;;;;;;;9.99;100.00;99576.44;5112459;28;20310;-63
2023/10/19 03:19:56;;;;;;;4.10;1.83;;;;;;;9.99;100.00;99581.53;5112100;28;20201;-63
2023/10/19 03:22:23;;;;;;;4.33;2.30;;;;;;;9.96;100.00;99581.63;5112345;27;20198;-64
2023/10/19 03:24:59;;;;;;;2.10;2.00;;;;;;;9.97;100.00;99583.31;5111834;28;20248;-64
2023/10/19 03:27:25;;;;;;;2.10;1.60;;;;;;;9.92;100.00;99587.69;5112428;28;20202;-64
2023/10/19 03:29:54;;;;;;;1.20;1.20;;;;;;;9.90;100.00;99586.91;5110259;28;20201;-64
2023/10/19 03:32:26;;;;;;;3.77;1.90;;;;;;;9.88;100.00;99588.66;5091774;28;20270;-64
2023/10/19 03:34:55;;;;;;;1.50;1.50;;;;;;;9.82;100.00;99583.69;5094236;27;20195;-64
2023/10/19 03:37:25;;;;;;;1.17;1.17;;;;;;;9.82;100.00;99586.25;5091623;28;20211;-64
2023/10/19 03:39:51;;;;;;;1.40;1.40;;;;;;;9.77;100.00;99580.38;5096713;28;20202;-64
2023/10/19 03:42:20;;;;;;;2.27;2.07;;;;;;;9.72;100.00;99579.66;5111834;28;20191;-64
2023/10/19 03:44:53;;;;;;;1.47;1.43;;;;;;;9.71;100.00;99580.53;5111844;28;20191;-64
2023/10/19 03:47:20;;;;;;;1.30;1.30;;;;;;;9.67;100.00;99568.69;5111924;27;20285;-64
2023/10/19 03:49:47;;;;;;;1.47;1.47;;;;;;;9.58;100.00;99574.03;5112263;28;20190;-64
2023/10/19 03:52:26;;;;;;;1.60;1.60;;;;;;;9.57;100.00;99573.19;5110443;28;20195;-64
2023/10/19 03:54:54;;;;;;;1.60;1.60;;;;;;;9.52;100.00;99559.66;5111818;27;20196;-64
2023/10/19 03:57:22;;;;;;;2.30;2.07;;;;;;;9.47;100.00;99562.31;5111443;28;20716;-64
2023/10/19 03:59:52;;;;;;;1.50;1.43;;;;;;;9.40;100.00;99554.84;5103658;28;20256;-64
2023/10/19 04:02:20;;;;;;;2.20;1.37;;;;;;;9.36;100.00;99559.19;5109387;27;20256;-64
2023/10/19 04:04:48;;;;;;;1.50;1.40;;;;;;;9.31;100.00;99553.31;5111083;28;20194;-64
2023/10/19 04:07:20;;;;;;;1.90;1.30;;;;;;;9.22;100.00;99556.09;5111370;28;20195;-64
2023/10/19 04:10:09;;;;;;;1.13;1.13;;;;;;;9.18;100.00;99557.00;5110843;27;20287;-64
2023/10/19 04:12:38;;;;;;;2.73;1.87;;;;;;;9.14;100.00;99552.03;5109067;28;20195;-64
2023/10/19 04:15:13;;;;;;;0.90;0.90;;;;;;;9.16;100.00;99563.88;5109476;27;20205;-64
2023/10/19 04:17:42;;;;;;;6.10;2.10;;;;;;;9.16;100.00;99552.81;5110681;28;20210;-64
2023/10/19 04:20:26;;;;;;;1.53;1.53;;;;;;;9.16;100.00;99566.44;5108598;28;20290;-64
2023/10/19 04:22:54;;;;;;;1.20;1.20;;;;;;;9.18;100.00;99564.69;5104253;27;21413;-64
2023/10/19 04:25:25;;;;;;;1.13;1.13;;;;;;;9.13;100.00;99556.28;5106670;27;20199;-64
2023/10/19 04:27:53;;;;;;;1.87;1.87;;;;;;;9.14;100.00;99560.53;5107867;27;20207;-66
2023/10/19 04:30:22;;;;;;;1.87;1.77;;;;;;;9.16;100.00;99560.50;5107506;27;20207;-66
2023/10/19 04:32:50;;;;;;;1.20;1.20;;;;;;;9.05;100.00;99555.59;5100555;27;20222;-66
2023/10/19 04:35:22;;;;;;;1.63;1.53;;;;;;;9.03;100.00;99549.69;5090563;28;20203;-66
2023/10/19 04:37:50;;;;;;;2.47;1.40;;;;;;;9.05;100.00;99553.03;5109008;28;20217;-67
2023/10/19 04:40:17;;;;;;;1.57;1.47;;;;;;;9.05;100.00;99558.16;5110205;28;20195;-66
2023/10/19 04:42:43;;;;;;;1.07;1.07;;;;;;;9.07;100.00;99561.53;5103399;28;20710;-67
2023/10/19 04:45:12;;;;;;;1.37;1.37;;;;;;;9.05;100.00;99555.59;5101225;28;20666;-66
2023/10/19 04:47:39;;;;;;;1.30;1.30;;;;;;;8.90;100.00;99538.03;5110519;28;20187;-66
2023/10/19 04:50:07;;;;;;;1.40;1.40;;;;;;;9.06;100.00;99559.00;5110909;28;20225;-66
2023/10/19 04:52:34;;;;;;;1.17;1.17;;;;;;;9.04;100.00;99565.88;5109341;28;20670;-66
2023/10/19 04:55:02;;;;;;;1.53;1.47;;;;;;;9.06;100.00;99570.06;5110962;28;20201;-66
2023/10/19 04:57:28;;;;;;;1.30;1.20;;;;;;;9.06;100.00;99567.53;5110816;28;20314;-67
2023/10/19 04:59:56;;;;;;;1.20;1.20;;;;;;;9.08;100.00;99572.63;5110770;28;20194;-66
2023/10/19 05:02:24;;;;;;;1.17;1.17;;;;;;;9.09;100.00;99564.03;5111365;27;20244;-66
2023/10/19 05:04:51;;;;;;;1.77;1.67;;;;;;;9.11;100.00;99572.53;5114968;28;20202;-66
2023/10/19 05:07:18;;;;;;;1.10;1.10;;;;;;;9.08;100.00;99573.44;5114755;28;20198;-66
2023/10/19 05:09:46;;;;;;;1.37;1.37;;;;;;;9.04;100.00;99566.72;5114724;28;20198;-66
2023/10/19 05:12:14;;;;;;;1.87;1.23;;;;;;;8.98;100.00;99570.22;5096658;27;20203;-66
2023/10/19 05:14:41;;;;;;;1.47;1.47;;;;;;;8.93;100.00;99568.66;5094248;28;20198;-66
2023/10/19 05:17:09;;;;;;;1.60;1.53;;;;;;;8.94;100.00;99570.34;5101224;27;20226;-66
2023/10/19 05:19:38;;;;;;;1.20;1.17;;;;;;;8.96;100.00;99566.03;5110203;28;20199;-66
2023/10/19 05:22:08;;;;;;;1.77;1.77;;;;;;;8.94;100.00;99575.47;5114666;28;20255;-66
2023/10/19 05:24:35;;;;;;;1.47;1.37;;;;;;;8.98;100.00;99576.22;5113940;28;20297;-67
2023/10/19 05:27:02;;;;;;;2.10;1.90;;;;;;;8.86;100.00;99557.72;5114331;28;20638;-66
2023/10/19 05:29:32;;;;;;;0.90;0.90;;;;;;;9.01;100.00;99577.00;5114272;28;20207;-66
2023/10/19 05:31:58;;;;;;;1.87;1.83;;;;;;;8.99;100.00;99573.63;5114043;28;20194;-66
2023/10/19 05:34:26;;;;;;;1.70;1.70;;;;;;;8.97;100.00;99570.28;5114378;28;20194;-66
2023/10/19 05:36:58;;;;;;;1.83;1.73;;;;;;;8.97;100.00;99572.84;5106688;28;20210;-67
2023/10/19 05:39:27;;;;;;;1.27;1.27;;;;;;;8.91;100.00;99566.13;5096934;27;20319;-67
2023/10/19 05:41:54;;;;;;;1.63;1.60;;;;;;;8.91;100.00;99575.53;5114964;27;20198;-67
2023/10/19 05:44:21;;;;;;;1.00;1.00;;;;;;;8.94;100.00;99575.47;5111997;28;20207;-67
2023/10/19 05:46:47;;;;;;;1.40;1.30;;;;;;;9.02;100.00;99577.84;5109220;27;20280;-66
2023/10/19 05:49:16;;;;;;;1.40;1.30;;;;;;;9.06;100.00;99580.31;5111913;28;20566;-70
2023/10/19 05:51:44;;;;;;;1.53;1.53;;;;;;;9.09;100.00;99582.78;5112063;27;20199;-66
2023/10/19 05:54:13;;;;;;;2.40;2.30;;;;;;;9.16;100.00;99581.78;5103762;28;20203;-66
2023/10/19 05:56:39;;;;;;;1.57;1.57;;;;;;;9.15;100.00;99580.09;5101057;28;20272;-66
2023/10/19 05:59:06;;;;;;;1.60;1.60;;;;;;;9.19;100.00;99583.44;5105720;28;20301;-66
2023/10/19 06:01:33;;;;;;;1.43;1.40;;;;;;;9.26;100.00;99579.88;5107810;27;20195;-66
2023/10/19 06:04:00;;;;;;;1.23;1.23;;;;;;;9.32;100.00;99583.16;5109832;27;20220;-66
2023/10/19 06:06:27;;;;;;;1.47;1.47;;;;;;;9.35;100.00;99572.84;5099594;27;20583;-66
2023/10/19 06:08:54;;;;;;;1.80;1.70;;;;;;;9.45;100.00;99584.56;5110052;28;20195;-66
2023/10/19 06:11:23;;;;;;;2.60;2.50;;;;;;;9.54;100.00;99582.66;5110157;28;20663;-66
2023/10/19 06:13:50;;;;;;;1.83;1.83;;;;;;;9.57;100.00;99587.69;5110760;28;20221;-66
2023/10/19 06:16:17;;;;;;;2.20;2.00;;;;;;;9.66;100.00;99583.19;5103928;28;20238;-66
2023/10/19 06:18:44;;;;;;;5.53;2.13;;;;;;;9.71;100.00;99580.53;5107095;27;20241;-67
2023/10/19 06:21:12;;;;;;;2.23;1.83;;;;;;;9.81;100.00;99585.41;5110911;27;20207;-68
2023/10/19 06:23:39;;;;;;;1.57;1.57;;;;;;;9.86;100.00;99585.28;5103805;28;20203;-68
2023/10/19 06:26:11;;;;;;;1.90;1.80;;;;;;;9.95;100.00;99591.03;5105080;27;20203;-67
2023/10/19 06:28:40;;;;;;;1.70;1.60;;;;;;;10.04;100.00;99592.53;5108544;28;20201;-67
2023/10/19 06:31:08;;;;;;;2.13;2.03;;;;;;;9.94;100.00;99579.13;5110049;28;20195;-67
2023/10/19 06:33:35;;;;;;;2.73;2.43;;;;;;;10.03;100.00;99593.41;5113081;27;20282;-67
2023/10/19 06:36:04;;;;;;;2.33;2.23;;;;;;;10.10;100.00;99594.09;5110772;28;20238;-67
2023/10/19 06:38:31;;;;;;;5.13;2.67;;;;;;;10.14;100.00;99586.34;5106578;28;20296;-67
2023/10/19 06:40:58;;;;;;;2.10;2.00;;;;;;;10.27;100.00;99586.88;5110096;28;20252;-67
2023/10/19 06:43:28;;;;;;;2.13;2.03;;;;;;;10.36;100.00;99592.59;5102338;28;20259;-67
2023/10/19 06:45:56;;;;;;;1.60;1.60;;;;;;;10.45;100.00;99586.38;5106375;28;20218;-67
2023/10/19 06:48:23;;;;;;;2.03;1.93;;;;;;;10.52;100.00;99583.59;5110207;28;20203;-68
2023/10/19 06:50:50;;;;;;;2.00;1.90;;;;;;;10.48;100.00;99583.72;5106738;28;20202;-67
2023/10/19 06:53:16;;;;;;;2.87;1.47;;;;;;;10.52;100.00;99582.75;5097914;28;20760;-66
2023/10/19 06:55:43;;;;;;;1.50;1.50;;;;;;;10.63;100.00;99577.34;5096223;28;20204;-67
2023/10/19 06:58:12;;;;;;;3.07;2.27;;;;;;;10.72;100.00;99582.22;5099971;28;20318;-66
2023/10/19 07:00:42;;;;;;;2.70;2.50;;;;;;;10.83;100.00;99577.63;5103874;28;20260;-67
2023/10/19 07:03:10;;;;;;;2.23;2.13;;;;;;;10.76;100.00;99591.53;5105382;28;20210;-68
2023/10/19 07:05:37;;;;;;;1.70;1.63;;;;;;;10.89;100.00;99587.69;5098610;28;20199;-67
2023/10/19 07:08:06;;;;;;;2.80;2.70;;;;;;;11.00;100.00;99585.69;5100069;28;20195;-68
2023/10/19 07:10:34;;;;;;;3.50;2.40;;;;;;;11.16;100.00;99586.06;5102825;28;20654;-67
2023/10/19 07:13:01;;;;;;;2.13;2.03;;;;;;;11.33;100.00;99583.84;5107703;28;20198;-65
2023/10/19 07:15:29;;;;;;;3.27;2.13;;;;;;;11.49;100.00;99583.34;5104876;28;20627;-65
2023/10/19 07:17:56;;;;;;;2.07;1.97;;;;;;;11.62;100.00;99580.38;5094483;27;20276;-66
2023/10/19 07:20:28;;;;;;;2.03;2.03;;;;;;;11.78;100.00;99586.75;5103701;27;20202;-65
2023/10/19 07:22:55;;;;;;;2.80;2.60;;;;;;;11.95;100.00;99584.47;5104936;28;20230;-67
2023/10/19 07:25:25;;;;;;;2.73;2.63;;;;;;;12.08;100.00;99580.63;5101580;27;20253;-67
2023/10/19 07:27:52;;;;;;;1.90;1.80;;;;;;;12.16;100.00;99582.91;5110343;27;20206;-67
2023/10/19 07:30:21;;;;;;;2.43;2.13;;;;;;;12.16;100.00;99563.19;5110524;28;20210;-67
2023/10/19 07:32:54;;;;;;;2.83;2.63;;;;;;;12.43;100.00;99582.81;5107879;28;20215;-66
2023/10/19 07:35:21;;;;;;;2.00;1.90;;;;;;;12.57;100.00;99580.59;5100938;27;20329;-66
2023/10/19 07:37:50;;;;;;;2.87;2.67;;;;;;;12.76;100.00;99575.66;5106238;28;20203;-66
2023/10/19 07:40:17;;;;;;;3.00;2.00;;;;;;;12.93;100.00;99567.28;5103332;28;20602;-66
2023/10/19 07:42:44;;;;;;;3.63;3.13;;;;;;;13.11;100.00;99571.81;5102331;28;20256;-68
2023/10/19 07:45:12;;;;;;;4.37;3.20;;;;;;;13.25;100.00;99572.09;5099375;28;20211;-67
2023/10/19 07:47:41;;;;;;;2.07;1.97;;;;;;;13.44;100.00;99567.91;5107198;27;20606;-67
2023/10/19 07:50:12;;;;;;;2.87;2.67;;;;;;;13.61;100.00;99573.25;5107172;27;20194;-66
2023/10/19 07:52:39;;;;;;;2.90;2.70;;;;;;;13.74;100.00;99567.59;5099060;27;20293;-67
2023/10/19 07:55:08;;;;;;;3.20;2.93;;;;;;;13.85;100.00;99562.88;5109873;28;20268;-67
2023/10/19 07:57:35;;;;;;;1.73;1.63;;;;;;;14.05;100.00;99566.31;5106534;28;20207;-68
2023/10/19 08:00:03;;;;;;;3.07;2.87;;;;;;;14.28;100.00;99567.91;5097927;28;20313;-67
2023/10/19 08:02:30;;;;;;;2.97;2.70;;;;;;;14.48;100.00;99567.91;5108308;27;20258;-67
2023/10/19 08:04:57;;;;;;;2.07;1.97;;;;;;;14.67;100.00;99573.94;5100610;28;20214;-66
2023/10/19 08:07:26;;;;;;;3.83;2.37;;;;;;;14.90;100.00;99565.19;5099312;28;20205;-67
2023/10/19 08:09:53;;;;;;;2.80;2.67;;;;;;;15.08;100.00;99566.09;5105146;27;20290;-68
2023/10/19 08:12:22;;;;;;;2.97;2.77;;;;;;;15.31;100.00;99562.47;5092642;28;20685;-67
2023/10/19 08:14:49;;;;;;;2.40;2.30;;;;;;;15.45;100.00;99560.03;5105278;28;20199;-66
2023/10/19 08:17:16;;;;;;;4.07;2.20;;;;;;;15.43;99.77;99567.88;5106380;27;20226;-66
2023/10/19 08:19:43;;;;;;;2.53;2.33;;;;;;;15.53;100.00;99571.75;5097720;28;20313;-66
2023/10/19 08:22:10;;;;;;;2.93;2.73;;;;;;;15.65;99.30;99567.72;5097941;28;20259;-68
2023/10/19 08:24:37;;;;;;;4.87;2.67;;;;;;;15.70;98.96;99564.00;5100324;28;20294;-66
2023/10/19 08:27:05;;;;;;;1.97;1.87;;;;;;;15.85;96.75;99559.84;5104629;28;20206;-65
2023/10/19 08:29:35;;;;;;;2.30;2.20;;;;;;;15.95;95.36;99552.47;5109623;28;20651;-67
2023/10/19 08:32:02;;;;;;;1.97;1.83;;;;;;;16.01;94.06;99544.41;5105070;28;20629;-67
2023/10/19 08:34:29;;;;;;;2.20;2.10;;;;;;;16.11;92.36;99548.22;5108709;28;20206;-66
2023/10/19 08:36:56;;;;;;;2.20;2.03;;;;;;;16.10;93.18;99546.53;5104397;28;20635;-66
2023/10/19 08:39:24;;;;;;;2.87;2.77;;;;;;;16.19;93.43;99546.06;5101360;28;20241;-66
2023/10/19 08:41:53;;;;;;;2.03;1.93;;;;;;;16.32;93.47;99547.13;5098612;28;20564;-66
2023/10/19 08:44:21;;;;;;;3.07;2.87;;;;;;;16.47;93.29;99541.16;5103392;28;20682;-66
2023/10/19 08:46:51;;;;;;;3.20;3.10;;;;;;;16.50;94.22;99538.41;5110850;28;20198;-66
2023/10/19 08:49:19;;;;;;;4.53;3.23;;;;;;;16.62;96.88;99536.97;5103902;28;20247;-66
2023/10/19 08:51:47;;;;;;;2.63;2.53;;;;;;;16.76;95.49;99526.72;5100831;28;20204;-66
2023/10/19 08:54:15;;;;;;;3.70;3.07;;;;;;;16.86;92.72;99514.13;5100215;28;20275;-66
2023/10/19 08:56:44;;;;;;;3.70;2.90;;;;;;;16.82;92.61;99528.16;5102737;28;20198;-66
2023/10/19 08:59:12;;;;;;;3.57;3.27;;;;;;;16.78;92.83;99527.47;5106215;28;20214;-66
2023/10/19 09:01:39;;;;;;;3.57;3.37;;;;;;;16.68;92.29;99527.13;5099597;28;20192;-66
2023/10/19 09:04:07;;;;;;;2.90;2.80;;;;;;;16.69;91.10;99521.03;5103789;28;20198;-66
2023/10/19 09:06:41;;;;;;;7.43;3.33;;;;;;;16.71;91.41;99515.75;5110608;28;20260;-66
2023/10/19 09:09:13;;;;;;;3.20;2.90;;;;;;;16.66;91.53;99510.84;5105358;28;20701;-66
2023/10/19 09:11:41;;;;;;;4.30;4.03;;;;;;;16.82;92.94;99510.03;5100969;28;20204;-66
2023/10/19 09:14:08;;;;;;;3.67;3.47;;;;;;;17.02;91.59;99508.03;5106770;28;20731;-66
2023/10/19 09:16:36;;;;;;;2.80;2.70;;;;;;;17.06;89.85;99508.69;5098140;28;20227;-66
2023/10/19 09:19:04;;;;;;;3.50;3.30;;;;;;;16.97;90.85;99504.00;5104198;28;20230;-68
2023/10/19 09:21:33;;;;;;;3.50;3.30;;;;;;;17.09;91.22;99498.97;5107879;28;20206;-67
2023/10/19 09:23:59;;;;;;;3.10;2.90;;;;;;;16.99;90.17;99502.19;5103870;28;20259;-67
2023/10/19 09:26:26;;;;;;;3.67;3.37;;;;;;;17.09;91.01;99498.16;5104920;28;20655;-68
2023/10/19 09:28:54;;;;;;;3.10;2.90;;;;;;;16.99;89.91;99494.41;5108321;28;20283;-65
2023/10/19 09:31:24;;;;;;;3.30;3.03;;;;;;;17.06;91.78;99490.56;5099568;28;20206;-67
2023/10/19 09:33:53;;;;;;;2.83;2.57;;;;;;;17.26;91.06;99485.09;5104250;28;20285;-67
2023/10/19 09:36:22;;;;;;;3.47;3.27;;;;;;;17.38;88.92;99481.84;5108864;28;20292;-67
2023/10/19 09:38:51;;;;;;;3.37;3.17;;;;;;;17.41;90.00;99471.31;5106376;28;20246;-67
2023/10/19 09:41:19;;;;;;;3.97;3.70;;;;;;;17.50;89.36;99468.19;5093630;28;20738;-67
2023/10/19 09:43:49;;;;;;;3.50;3.27;;;;;;;17.40;88.52;99472.22;5095153;28;20629;-68
2023/10/19 09:46:22;;;;;;;4.23;3.37;;;;;;;17.35;88.23;99481.97;5099870;28;20237;-66
2023/10/19 09:48:50;;;;;;;3.33;3.03;;;;;;;17.50;90.07;99472.53;5106509;28;20210;-66
2023/10/19 09:51:19;;;;;;;2.57;2.47;;;;;;;17.58;90.03;99471.19;5111026;28;20710;-67
2023/10/19 09:53:49;;;;;;;2.53;2.33;;;;;;;17.61;88.33;99465.81;5107905;28;20297;-68
2023/10/19 09:56:22;;;;;;;3.57;3.27;;;;;;;17.49;88.21;99458.72;5101615;27;20207;-67
2023/10/19 09:58:54;;;;;;;4.70;3.07;;;;;;;17.53;87.77;99468.00;5110720;27;20245;-67
2023/10/19 10:01:22;;;;;;;3.20;2.90;;;;;;;17.55;87.20;99461.00;5108502;28;20741;-67
2023/10/19 10:03:51;;;;;;;3.10;2.90;;;;;;;17.71;87.91;99459.19;5111337;27;20231;-66
2023/10/19 10:06:27;;;;;;;2.80;2.63;;;;;;;17.78;87.04;99467.44;5107666;28;20547;-67
2023/10/19 10:08:54;;;;;;;2.97;2.77;;;;;;;17.78;85.17;99457.91;5109431;28;20198;-67
2023/10/19 10:11:26;;;;;;;3.30;3.10;;;;;;;17.70;85.91;99449.75;5105248;28;20200;-67
2023/10/19 10:13:54;;;;;;;2.80;2.60;;;;;;;17.61;85.57;99447.66;5106534;28;20209;-67
2023/10/19 10:16:23;;;;;;;2.53;2.33;;;;;;;17.75;85.11;99452.91;5107598;28;20242;-66
2023/10/19 10:18:51;;;;;;;3.03;2.93;;;;;;;17.81;84.42;99447.34;5109299;28;20314;-67
2023/10/19 10:21:21;;;;;;;2.87;2.67;;;;;;;18.00;85.61;99448.84;5105381;28;20220;-68
2023/10/19 10:23:49;;;;;;;5.20;3.27;;;;;;;18.11;84.33;99441.25;5104354;27;20261;-69
2023/10/19 10:26:18;;;;;;;4.83;4.50;;;;;;;18.23;84.35;99430.13;5098512;27;20852;-68
2023/10/19 10:28:50;;;;;;;3.10;2.90;;;;;;;18.09;83.36;99414.59;5111585;28;20209;-68
2023/10/19 10:31:22;;;;;;;2.80;2.60;;;;;;;18.33;84.15;99433.84;5112136;28;20660;-68
2023/10/19 10:33:51;;;;;;;3.33;2.70;;;;;;;18.18;81.03;99434.78;5110552;28;20282;-67
2023/10/19 10:36:18;;;;;;;2.13;2.03;;;;;;;18.17;78.39;99430.50;5109883;28;20677;-67
2023/10/19 10:38:47;;;;;;;2.50;2.30;;;;;;;18.31;78.31;99425.31;5109819;28;20202;-66
2023/10/19 10:41:20;;;;;;;2.97;2.77;;;;;;;18.26;81.51;99423.00;5108788;27;20210;-68
2023/10/19 10:43:54;;;;;;;2.50;2.40;;;;;;;18.46;81.42;99416.59;5102792;28;20222;-68
2023/10/19 10:46:22;;;;;;;2.87;2.67;;;;;;;18.41;79.25;99421.25;5112601;28;20288;-68
2023/10/19 10:48:49;;;;;;;3.00;2.87;;;;;;;18.45;79.57;99409.72;5101332;27;20257;-67
2023/10/19 10:51:21;;;;;;;2.13;1.90;;;;;;;18.57;81.57;99390.84;5108255;28;20200;-66
2023/10/19 10:53:50;;;;;;;2.83;2.73;;;;;;;18.79;81.41;99396.34;5111786;28;20224;-67
2023/10/19 10:56:17;;;;;;;2.83;2.73;;;;;;;18.80;78.59;99397.16;5094921;28;20212;-67
2023/10/19 10:58:44;;;;;;;3.17;2.20;;;;;;;18.86;78.78;99392.41;5099822;28;20244;-67
2023/10/19 11:01:14;;;;;;;2.70;2.50;;;;;;;19.02;78.48;99389.66;5110354;28;20727;-66
2023/10/19 11:03:42;;;;;;;3.20;3.03;;;;;;;18.97;78.32;99389.09;5099831;27;20731;-66
2023/10/19 11:06:09;;;;;;;2.80;2.43;;;;;;;18.97;77.73;99383.06;5106459;27;20199;-66
2023/10/19 11:08:38;;;;;;;2.23;2.13;;;;;;;18.91;77.55;99378.28;5104779;28;20250;-67
2023/10/19 11:11:06;;;;;;;3.30;2.90;;;;;;;19.00;77.88;99377.72;5112746;28;20232;-67
2023/10/19 11:13:35;;;;;;;1.73;1.63;;;;;;;19.06;75.95;99377.31;5103615;28;20201;-67
2023/10/19 11:16:05;;;;;;;2.67;2.57;;;;;;;18.94;75.06;99352.09;5100817;27;20734;-68
2023/10/19 11:18:37;;;;;;;1.80;1.70;;;;;;;19.02;74.72;99365.44;5096252;28;20207;-66
2023/10/19 11:21:10;;;;;;;1.53;1.53;;;;;;;18.99;75.47;99350.06;5111029;28;20250;-67
2023/10/19 11:23:45;;;;;;;2.23;2.10;;;;;;;19.10;74.57;99357.97;5092906;28;20245;-67
2023/10/19 11:26:13;;;;;;;2.13;2.00;;;;;;;19.08;75.10;99344.25;5103254;27;20613;-66
2023/10/19 11:28:47;;;;;;;2.17;1.97;;;;;;;19.24;75.80;99340.53;5096369;28;20225;-65
2023/10/19 11:31:18;;;;;;;2.90;2.10;;;;;;;19.28;75.04;99331.59;5105636;27;20202;-66
2023/10/19 11:33:49;;;;;;;2.20;2.10;;;;;;;19.36;75.05;99318.06;5111107;28;20207;-66
2023/10/19 11:36:17;;;;;;;2.43;2.33;;;;;;;19.36;75.16;99312.88;5104853;28;20241;-67
2023/10/19 11:38:45;;;;;;;1.57;1.50;;;;;;;19.31;73.18;99296.78;5109880;28;20288;-67
2023/10/19 11:41:13;;;;;;;2.67;2.47;;;;;;;19.19;73.58;99311.41;5111421;28;20218;-67